createdAt,value
2022-12-18T00:01:23.935Z,85.34
2022-12-18T00:03:51.876Z,84.56
2022-12-18T00:06:20.741Z,84.39
2022-12-18T00:08:48.284Z,84.46
2022-12-18T00:11:17.826Z,83.60
2022-12-18T00:13:45.276Z,84.05
2022-12-18T00:16:14.715Z,84.08
2022-12-18T00:18:42.956Z,83.40
2022-12-18T00:21:12.192Z,82.91
2022-12-18T00:23:40.980Z,83.47
2022-12-18T00:26:12.486Z,84.83
2022-12-18T00:28:39.330Z,85.13
2022-12-18T00:31:12.026Z,86.37
2022-12-18T00:33:39.600Z,86.66
2022-12-18T00:36:21.607Z,86.10
2022-12-18T00:38:49.093Z,85.33
2022-12-18T00:41:39.642Z,83.37
2022-12-18T00:44:08.597Z,84.17
2022-12-18T00:46:35.412Z,83.38
2022-12-18T00:49:02.704Z,83.76
2022-12-18T00:51:29.865Z,83.22
2022-12-18T00:53:56.751Z,83.28
2022-12-18T00:56:24.245Z,83.57
2022-12-18T00:58:51.552Z,83.08
2022-12-18T01:01:19.401Z,82.95
2022-12-18T01:03:47.644Z,83.48
2022-12-18T01:06:16.899Z,82.86
2022-12-18T01:08:44.639Z,83.48
2022-12-18T01:11:16.928Z,83.47
2022-12-18T01:13:45.060Z,83.41
2022-12-18T01:16:16.791Z,82.22
2022-12-18T01:18:43.704Z,84.07
2022-12-18T01:21:13.267Z,84.60
2022-12-18T01:23:41.062Z,84.97
2022-12-18T01:26:16.371Z,85.38
2022-12-18T01:28:45.061Z,84.33
2022-12-18T01:31:20.860Z,84.05
2022-12-18T01:33:47.716Z,84.09
2022-12-18T01:36:23.397Z,84.94
2022-12-18T01:38:50.897Z,84.25
2022-12-18T01:41:22.712Z,85.52
2022-12-18T01:43:58.413Z,85.58
2022-12-18T01:46:26.901Z,85.08
2022-12-18T01:49:02.428Z,84.96
2022-12-18T01:51:31.701Z,85.83
2022-12-18T01:54:00.381Z,85.17
2022-12-18T01:56:27.297Z,85.30
2022-12-18T01:59:00.960Z,85.67
2022-12-18T02:01:29.111Z,84.24
2022-12-18T02:03:56.017Z,86.53
2022-12-18T02:06:38.877Z,86.40
2022-12-18T02:09:12.199Z,87.52
2022-12-18T02:11:44.894Z,87.72
2022-12-18T02:14:34.118Z,87.45
2022-12-18T02:17:18.201Z,87.07
2022-12-18T02:20:17.223Z,87.02
2022-12-18T02:23:12.276Z,86.00
2022-12-18T02:26:19.810Z,86.03
2022-12-18T02:29:05.096Z,85.57
2022-12-18T02:31:40.944Z,84.79
2022-12-18T02:34:10.357Z,86.14
2022-12-18T02:36:44.089Z,86.70
2022-12-18T02:39:14.722Z,87.90
2022-12-18T02:41:51.862Z,89.17
2022-12-18T02:44:21.111Z,88.88
2022-12-18T02:46:52.680Z,88.42
2022-12-18T02:49:46.085Z,89.09
2022-12-18T02:52:48.835Z,89.99
2022-12-18T02:55:41.562Z,89.74
2022-12-18T02:58:36.903Z,87.68
2022-12-18T03:01:22.039Z,88.20
2022-12-18T03:03:56.423Z,88.40
2022-12-18T03:06:42.086Z,88.64
2022-12-18T03:09:14.328Z,88.81
2022-12-18T03:12:03.765Z,89.12
2022-12-18T03:14:38.967Z,88.46
2022-12-18T03:17:11.465Z,89.25
2022-12-18T03:19:40.320Z,89.35
2022-12-18T03:22:08.728Z,89.78
2022-12-18T03:24:46.938Z,89.77
2022-12-18T03:27:18.677Z,88.96
2022-12-18T03:30:11.335Z,87.90
2022-12-18T03:32:56.484Z,87.14
2022-12-18T03:35:32.871Z,87.84
2022-12-18T03:37:59.918Z,87.95
2022-12-18T03:40:39.265Z,87.78
2022-12-18T03:43:19.876Z,87.73
2022-12-18T03:45:56.782Z,86.85
2022-12-18T03:48:29.458Z,87.86
2022-12-18T03:51:09.939Z,88.17
2022-12-18T03:53:53.375Z,87.44
2022-12-18T03:56:29.776Z,85.79
2022-12-18T03:59:00.015Z,86.28
2022-12-18T04:01:35.600Z,86.91
2022-12-18T04:04:04.944Z,86.40
2022-12-18T04:06:35.611Z,85.38
2022-12-18T04:09:02.646Z,84.08
2022-12-18T04:11:31.313Z,85.67
2022-12-18T04:13:59.357Z,86.17
2022-12-18T04:16:27.579Z,86.42
2022-12-18T04:18:57.475Z,85.37
2022-12-18T04:21:26.374Z,86.72
2022-12-18T04:23:53.776Z,86.34
2022-12-18T04:26:23.041Z,85.41
2022-12-18T04:29:21.659Z,86.10
2022-12-18T04:31:48.718Z,86.86
2022-12-18T04:34:16.561Z,85.97
2022-12-18T04:36:49.365Z,86.11
2022-12-18T04:39:16.812Z,86.67
2022-12-18T04:41:43.978Z,87.32
2022-12-18T04:44:13.602Z,87.11
2022-12-18T04:46:40.488Z,86.57
2022-12-18T04:49:07.316Z,87.49
2022-12-18T04:51:34.107Z,88.16
2022-12-18T04:54:00.837Z,88.09
2022-12-18T04:56:27.701Z,88.10
2022-12-18T04:58:54.465Z,87.66
2022-12-18T05:01:21.320Z,86.92
2022-12-18T05:03:48.472Z,86.91
2022-12-18T05:06:15.843Z,87.17
2022-12-18T05:08:42.564Z,87.79
2022-12-18T05:11:16.702Z,88.57
2022-12-18T05:13:45.420Z,88.49
2022-12-18T05:16:14.339Z,88.24
2022-12-18T05:18:41.304Z,87.57
2022-12-18T05:21:08.630Z,86.81
2022-12-18T05:23:36.108Z,86.18
2022-12-18T05:26:05.498Z,86.00
2022-12-18T05:28:34.343Z,86.01
2022-12-18T05:31:03.328Z,85.21
2022-12-18T05:33:32.767Z,84.33
2022-12-18T05:36:02.800Z,83.56
2022-12-18T05:38:30.832Z,85.59
2022-12-18T05:40:58.284Z,86.54
2022-12-18T05:43:27.371Z,85.20
2022-12-18T05:45:54.542Z,86.89
2022-12-18T05:48:21.916Z,89.01
2022-12-18T05:50:50.007Z,89.07
2022-12-18T05:53:20.881Z,89.19
2022-12-18T05:55:51.415Z,88.54
2022-12-18T05:58:18.276Z,88.35
2022-12-18T06:00:47.124Z,90.64
2022-12-18T06:03:15.029Z,90.68
2022-12-18T06:05:46.585Z,90.55
2022-12-18T06:08:14.213Z,91.50
2022-12-18T06:10:42.057Z,91.69
2022-12-18T06:13:09.829Z,91.17
2022-12-18T06:15:41.177Z,90.23
2022-12-18T06:18:07.965Z,89.51
2022-12-18T06:20:34.755Z,88.33
2022-12-18T06:23:01.609Z,87.74
2022-12-18T06:25:28.385Z,85.86
2022-12-18T06:27:55.575Z,86.27
2022-12-18T06:30:22.435Z,87.29
2022-12-18T06:32:56.101Z,87.68
2022-12-18T06:35:23.642Z,88.02
2022-12-18T06:37:50.463Z,87.77
2022-12-18T06:40:17.718Z,87.88
2022-12-18T06:42:44.456Z,86.98
2022-12-18T06:45:12.446Z,86.94
2022-12-18T06:47:39.325Z,86.08
2022-12-18T06:50:06.719Z,85.66
2022-12-18T06:52:33.971Z,86.11
2022-12-18T06:55:01.294Z,86.02
2022-12-18T06:57:28.029Z,85.59
2022-12-18T06:59:56.177Z,86.04
2022-12-18T07:02:25.499Z,85.39
2022-12-18T07:04:52.562Z,84.72
2022-12-18T07:07:19.484Z,85.72
2022-12-18T07:09:46.328Z,86.27
2022-12-18T07:12:12.997Z,86.28
2022-12-18T07:14:39.817Z,86.29
2022-12-18T07:17:06.656Z,85.69
2022-12-18T07:19:34.177Z,86.02
2022-12-18T07:22:01.468Z,86.20
2022-12-18T07:24:28.993Z,86.07
2022-12-18T07:26:55.784Z,85.90
2022-12-18T07:29:22.652Z,86.62
2022-12-18T07:31:50.265Z,87.55
2022-12-18T07:34:17.523Z,88.27
2022-12-18T07:36:44.256Z,88.62
2022-12-18T07:39:12.858Z,88.34
2022-12-18T07:41:46.734Z,88.07
2022-12-18T07:44:16.291Z,87.81
2022-12-18T07:46:43.059Z,87.08
2022-12-18T07:49:09.825Z,87.28
2022-12-18T07:51:36.584Z,87.28
2022-12-18T07:54:03.555Z,87.45
2022-12-18T07:56:31.430Z,87.96
2022-12-18T07:59:00.074Z,88.15
2022-12-18T08:01:27.267Z,88.42
2022-12-18T08:03:54.306Z,88.13
2022-12-18T08:06:23.941Z,88.55
2022-12-18T08:08:55.957Z,89.47
2022-12-18T08:11:24.499Z,89.42
2022-12-18T08:13:51.695Z,89.59
2022-12-18T08:16:19.538Z,89.67
2022-12-18T08:18:46.991Z,90.72
2022-12-18T08:21:17.836Z,90.71
2022-12-18T08:23:45.066Z,90.50
2022-12-18T08:26:13.512Z,90.25
2022-12-18T08:28:40.949Z,89.82
2022-12-18T08:31:09.131Z,89.42
2022-12-18T08:33:37.340Z,89.65
2022-12-18T08:36:05.189Z,89.35
2022-12-18T08:38:33.352Z,88.51
2022-12-18T08:41:07.890Z,88.33
2022-12-18T08:43:54.357Z,87.49
2022-12-18T08:46:22.948Z,86.70
2022-12-18T08:48:51.779Z,87.01
2022-12-18T08:51:18.980Z,87.35
2022-12-18T08:53:48.760Z,85.81
2022-12-18T08:56:16.312Z,86.18
2022-12-18T08:58:43.655Z,86.45
2022-12-18T09:01:13.206Z,86.50
2022-12-18T09:03:41.113Z,86.30
2022-12-18T09:06:09.023Z,87.29
2022-12-18T09:08:38.016Z,87.70
2022-12-18T09:11:05.377Z,87.49
2022-12-18T09:13:32.232Z,87.08
2022-12-18T09:15:59.863Z,86.42
2022-12-18T09:18:27.443Z,86.38
2022-12-18T09:20:54.430Z,85.70
2022-12-18T09:23:22.194Z,86.27
2022-12-18T09:25:49.677Z,86.55
2022-12-18T09:28:19.465Z,86.67
2022-12-18T09:30:49.910Z,85.44
2022-12-18T09:33:18.290Z,85.63
2022-12-18T09:35:46.558Z,85.07
2022-12-18T09:38:19.776Z,85.45
2022-12-18T09:40:50.890Z,85.61
2022-12-18T09:43:45.198Z,85.28
2022-12-18T09:46:41.494Z,84.53
2022-12-18T09:49:15.555Z,84.46
2022-12-18T09:51:51.541Z,83.34
2022-12-18T09:54:33.096Z,82.36
2022-12-18T09:57:00.012Z,82.39
2022-12-18T09:59:36.770Z,82.50
2022-12-18T10:02:16.166Z,81.97
2022-12-18T10:04:43.254Z,81.79
2022-12-18T10:07:29.548Z,81.41
2022-12-18T10:10:09.729Z,81.68
2022-12-18T10:13:04.948Z,82.29
2022-12-18T10:15:51.811Z,82.11
2022-12-18T10:18:27.567Z,82.30
2022-12-18T10:21:01.188Z,81.26
2022-12-18T10:23:34.076Z,80.20
2022-12-18T10:26:05.407Z,80.13
2022-12-18T10:28:34.213Z,80.44
2022-12-18T10:31:01.131Z,79.40
2022-12-18T10:33:32.957Z,79.11
2022-12-18T10:36:01.172Z,78.57
2022-12-18T10:38:30.005Z,77.72
2022-12-18T10:40:59.958Z,77.07
2022-12-18T10:43:30.616Z,75.91
2022-12-18T10:46:13.818Z,73.86
2022-12-18T10:48:49.561Z,72.41
2022-12-18T10:51:32.476Z,74.45
2022-12-18T10:54:03.708Z,75.59
2022-12-18T10:56:34.560Z,75.40
2022-12-18T10:59:06.874Z,74.05
2022-12-18T11:01:55.936Z,74.68
2022-12-18T11:04:28.622Z,74.48
2022-12-18T11:07:09.610Z,74.57
2022-12-18T11:09:41.034Z,73.70
2022-12-18T11:12:23.725Z,73.38
2022-12-18T11:14:53.771Z,73.43
2022-12-18T11:17:31.415Z,73.03
2022-12-18T11:20:31.079Z,71.99
2022-12-18T11:23:01.643Z,69.96
2022-12-18T11:25:33.328Z,71.50
2022-12-18T11:28:20.981Z,71.41
2022-12-18T11:30:47.730Z,70.47
2022-12-18T11:33:20.549Z,71.77
2022-12-18T11:35:58.819Z,71.99
2022-12-18T11:38:26.588Z,71.08
2022-12-18T11:41:22.736Z,71.15
2022-12-18T11:43:53.974Z,71.80
2022-12-18T11:46:57.164Z,68.88
2022-12-18T11:49:35.781Z,68.99
2022-12-18T11:52:21.289Z,67.71
2022-12-18T11:54:48.230Z,66.66
2022-12-18T11:57:29.945Z,68.19
2022-12-18T12:00:13.089Z,66.90
2022-12-18T12:03:08.172Z,67.09
2022-12-18T12:05:56.980Z,64.83
2022-12-18T12:08:42.117Z,64.42
2022-12-18T12:11:19.526Z,65.04
2022-12-18T12:14:14.742Z,65.13
2022-12-18T12:17:00.088Z,63.97
2022-12-18T12:19:53.719Z,65.38
2022-12-18T12:22:39.673Z,65.34
2022-12-18T12:25:37.483Z,66.85
2022-12-18T12:28:17.047Z,65.95
2022-12-18T12:30:45.296Z,66.48
2022-12-18T12:33:20.794Z,66.56
2022-12-18T12:36:16.611Z,67.26
2022-12-18T12:38:52.415Z,66.64
2022-12-18T12:41:52.326Z,66.97
2022-12-18T12:44:34.083Z,66.69
2022-12-18T12:47:14.454Z,65.66
2022-12-18T12:49:48.785Z,65.10
2022-12-18T12:52:42.883Z,61.40
2022-12-18T12:55:18.359Z,60.37
2022-12-18T12:58:01.227Z,61.57
2022-12-18T13:00:37.817Z,62.01
2022-12-18T13:03:34.991Z,62.63
2022-12-18T13:06:10.544Z,62.25
2022-12-18T13:08:56.486Z,63.16
2022-12-18T13:12:11.442Z,62.80
2022-12-18T13:14:41.481Z,63.08
2022-12-18T13:17:20.949Z,60.61
2022-12-18T13:20:04.899Z,60.83
2022-12-18T13:22:37.506Z,61.10
2022-12-18T13:25:35.926Z,60.72
2022-12-18T13:28:13.828Z,59.88
2022-12-18T13:30:54.102Z,59.17
2022-12-18T13:33:27.892Z,59.62
2022-12-18T13:36:24.058Z,60.65
2022-12-18T13:39:30.229Z,60.71
2022-12-18T13:42:07.208Z,60.75
2022-12-18T13:44:39.979Z,60.69
2022-12-18T13:47:31.746Z,60.17
2022-12-18T13:49:59.320Z,61.46
2022-12-18T13:52:34.649Z,60.54
2022-12-18T13:55:06.319Z,61.04
2022-12-18T13:57:36.202Z,62.64
2022-12-18T14:00:29.821Z,62.44
2022-12-18T14:02:58.174Z,62.53
2022-12-18T14:05:32.166Z,62.30
2022-12-18T14:08:17.707Z,62.02
2022-12-18T14:10:48.386Z,62.17
2022-12-18T14:13:30.338Z,62.41
2022-12-18T14:16:03.852Z,60.89
2022-12-18T14:18:44.952Z,60.32
2022-12-18T14:21:22.266Z,60.74
2022-12-18T14:23:49.206Z,61.17
2022-12-18T14:26:23.555Z,62.26
2022-12-18T14:28:51.933Z,63.45
2022-12-18T14:31:20.863Z,64.30
2022-12-18T14:33:47.983Z,64.18
2022-12-18T14:36:23.437Z,65.22
2022-12-18T14:38:55.737Z,65.47
2022-12-18T14:41:23.551Z,66.83
2022-12-18T14:43:55.124Z,67.76
2022-12-18T14:46:31.116Z,68.20
2022-12-18T14:48:58.623Z,68.64
2022-12-18T14:51:30.851Z,69.33
2022-12-18T14:54:22.253Z,69.08
2022-12-18T14:57:02.520Z,66.65
2022-12-18T14:59:31.293Z,67.15
2022-12-18T15:02:11.857Z,67.00
2022-12-18T15:04:43.647Z,67.25
2022-12-18T15:07:21.123Z,68.07
2022-12-18T15:10:12.572Z,67.69
2022-12-18T15:12:51.708Z,68.71
2022-12-18T15:15:45.837Z,69.75
2022-12-18T15:18:18.640Z,72.05
2022-12-18T15:20:54.566Z,72.88
2022-12-18T15:23:24.591Z,73.33
2022-12-18T15:26:00.888Z,73.26
2022-12-18T15:28:40.423Z,73.35
2022-12-18T15:31:10.888Z,73.05
2022-12-18T15:33:48.067Z,74.39
2022-12-18T15:36:19.317Z,74.34
2022-12-18T15:38:57.310Z,74.73
2022-12-18T15:41:36.505Z,74.83
2022-12-18T15:44:18.257Z,75.75
2022-12-18T15:46:45.411Z,75.40
2022-12-18T15:49:12.361Z,75.33
2022-12-18T15:51:40.942Z,75.88
2022-12-18T15:54:15.152Z,74.53
2022-12-18T15:57:00.727Z,74.86
2022-12-18T15:59:27.848Z,75.66
2022-12-18T16:01:54.808Z,76.00
2022-12-18T16:04:23.701Z,75.38
2022-12-18T16:07:13.799Z,75.82
2022-12-18T16:09:38.438Z,76.75
2022-12-18T16:12:07.339Z,76.81
2022-12-18T16:14:34.147Z,75.70
2022-12-18T16:17:03.751Z,74.97
2022-12-18T16:19:31.139Z,74.42
2022-12-18T16:21:59.451Z,75.41
2022-12-18T16:24:29.104Z,75.40
2022-12-18T16:27:00.288Z,76.58
2022-12-18T16:29:29.317Z,77.06
2022-12-18T16:31:59.909Z,76.98
2022-12-18T16:34:36.284Z,76.08
2022-12-18T16:37:06.665Z,76.44
2022-12-18T16:39:37.499Z,77.05
2022-12-18T16:42:17.526Z,76.99
2022-12-18T16:44:45.767Z,77.36
2022-12-18T16:47:14.363Z,77.76
2022-12-18T16:49:42.964Z,78.27
2022-12-18T16:52:09.751Z,77.84
2022-12-18T16:54:39.625Z,76.70
2022-12-18T16:57:06.511Z,77.42
2022-12-18T16:59:33.295Z,78.40
2022-12-18T17:02:00.929Z,78.31
2022-12-18T17:04:27.860Z,78.25
2022-12-18T17:06:54.584Z,78.59
2022-12-18T17:09:25.190Z,79.05
2022-12-18T17:11:53.723Z,79.25
2022-12-18T17:14:23.949Z,79.28
2022-12-18T17:17:19.630Z,78.48
2022-12-18T17:19:42.142Z,78.91
2022-12-18T17:22:11.481Z,78.39
2022-12-18T17:24:38.461Z,78.46
2022-12-18T17:27:09.038Z,78.82
2022-12-18T17:29:36.337Z,79.48
2022-12-18T17:32:04.630Z,79.39
2022-12-18T17:34:31.543Z,79.47
2022-12-18T17:36:58.427Z,79.85
2022-12-18T17:39:25.885Z,79.94
2022-12-18T17:41:52.873Z,79.96
2022-12-18T17:44:20.251Z,79.86
2022-12-18T17:46:50.426Z,80.13
2022-12-18T17:49:17.329Z,80.01
2022-12-18T17:51:44.167Z,80.24
2022-12-18T17:54:11.263Z,79.58
2022-12-18T17:56:39.261Z,80.15
2022-12-18T17:59:07.239Z,80.74
2022-12-18T18:01:36.427Z,80.91
2022-12-18T18:04:05.636Z,81.00
2022-12-18T18:06:32.416Z,80.89
2022-12-18T18:09:01.786Z,80.74
2022-12-18T18:11:47.186Z,81.13
2022-12-18T18:14:17.196Z,81.89
2022-12-18T18:16:46.407Z,81.88
2022-12-18T18:19:20.044Z,81.65
2022-12-18T18:21:48.867Z,80.28
2022-12-18T18:24:19.387Z,80.99
2022-12-18T18:26:47.142Z,81.72
2022-12-18T18:29:17.162Z,82.28
2022-12-18T18:31:44.323Z,82.74
2022-12-18T18:34:32.274Z,82.64
2022-12-18T18:37:01.597Z,82.70
2022-12-18T18:39:29.129Z,82.95
2022-12-18T18:41:56.119Z,83.04
2022-12-18T18:44:24.747Z,82.37
2022-12-18T18:46:57.705Z,82.22
2022-12-18T18:49:27.891Z,82.35
2022-12-18T18:51:56.691Z,82.54
2022-12-18T18:54:24.529Z,81.82
2022-12-18T18:59:39.565Z,81.37
2022-12-18T19:02:09.332Z,82.51
2022-12-18T19:04:42.707Z,83.21
2022-12-18T19:07:15.024Z,83.59
2022-12-18T19:09:57.054Z,83.99
2022-12-18T19:12:42.363Z,83.13
2022-12-18T19:15:09.729Z,82.26
2022-12-18T19:17:37.603Z,82.46
2022-12-18T19:20:05.516Z,81.29
2022-12-18T19:22:32.585Z,81.99
2022-12-18T19:24:59.567Z,82.78
2022-12-18T19:27:26.310Z,83.65
2022-12-18T19:29:53.099Z,84.13
2022-12-18T19:32:19.967Z,84.03
2022-12-18T19:34:47.132Z,83.36
2022-12-18T19:37:14.878Z,83.59
2022-12-18T19:39:41.792Z,83.27
2022-12-18T19:42:10.720Z,83.41
2022-12-18T19:44:37.951Z,82.43
2022-12-18T19:47:05.184Z,82.59
2022-12-18T19:49:32.860Z,83.57
2022-12-18T19:52:01.189Z,83.10
2022-12-18T19:54:28.260Z,83.32
2022-12-18T19:56:58.340Z,82.88
2022-12-18T19:59:25.258Z,82.23
2022-12-18T20:01:54.826Z,81.62
2022-12-18T20:04:22.041Z,82.60
2022-12-18T20:06:52.953Z,82.99
2022-12-18T20:09:20.045Z,83.29
2022-12-18T20:11:48.109Z,84.52
2022-12-18T20:14:19.612Z,84.91
2022-12-18T20:16:50.458Z,85.22
2022-12-18T20:19:17.814Z,84.55
2022-12-18T20:21:45.062Z,84.36
2022-12-18T20:24:12.470Z,83.69
2022-12-18T20:26:40.701Z,83.53
2022-12-18T20:29:10.132Z,84.12
2022-12-18T20:31:39.321Z,84.03
2022-12-18T20:34:07.179Z,84.04
2022-12-18T20:36:36.410Z,83.97
2022-12-18T20:39:06.507Z,84.11
2022-12-18T20:41:38.029Z,84.13
2022-12-18T20:44:09.865Z,84.50
2022-12-18T20:46:56.434Z,84.30
2022-12-18T20:49:25.409Z,83.93
2022-12-18T20:51:57.846Z,83.73
2022-12-18T20:54:26.896Z,83.75
2022-12-18T20:56:53.916Z,84.34
2022-12-18T20:59:23.164Z,83.95
2022-12-18T21:01:52.322Z,84.10
2022-12-18T21:04:20.682Z,84.48
2022-12-18T21:06:54.247Z,84.66
2022-12-18T21:09:37.644Z,84.25
2022-12-18T21:12:40.659Z,84.45
2022-12-18T21:15:18.250Z,85.25
2022-12-18T21:17:46.504Z,85.33
2022-12-18T21:20:18.249Z,85.28
2022-12-18T21:22:47.031Z,85.85
2022-12-18T21:25:14.763Z,85.60
2022-12-18T21:27:41.914Z,85.48
2022-12-18T21:30:09.801Z,85.51
2022-12-18T21:32:39.565Z,86.08
2022-12-18T21:35:06.896Z,85.97
2022-12-18T21:37:34.094Z,85.62
2022-12-18T21:40:01.465Z,85.34
2022-12-18T21:42:47.303Z,85.43
2022-12-18T21:45:14.335Z,85.32
2022-12-18T21:47:41.434Z,85.47
2022-12-18T21:50:08.770Z,85.75
2022-12-18T21:52:35.786Z,85.43
2022-12-18T21:55:09.113Z,85.36
2022-12-18T21:57:38.553Z,84.04
2022-12-18T22:00:07.622Z,83.80
2022-12-18T22:02:41.061Z,84.58
2022-12-18T22:05:08.609Z,84.82
2022-12-18T22:07:35.845Z,85.32
2022-12-18T22:10:02.722Z,84.78
2022-12-18T22:12:43.402Z,85.35
2022-12-18T22:15:13.184Z,85.37
2022-12-18T22:17:50.304Z,85.83
2022-12-18T22:20:18.369Z,84.76
2022-12-18T22:22:48.302Z,85.51
2022-12-18T22:25:15.153Z,85.23
2022-12-18T22:27:42.638Z,84.84
2022-12-18T22:30:16.802Z,84.85
2022-12-18T22:32:46.696Z,85.53
2022-12-18T22:35:15.970Z,84.38
2022-12-18T22:37:43.087Z,85.13
2022-12-18T22:40:23.898Z,85.28
2022-12-18T22:42:52.872Z,85.54
2022-12-18T22:45:20.415Z,85.49
2022-12-18T22:47:47.318Z,85.39
2022-12-18T22:50:14.904Z,85.56
2022-12-18T22:52:42.479Z,84.95
2022-12-18T22:55:09.715Z,85.41
2022-12-18T22:57:41.179Z,85.33
2022-12-18T23:00:32.286Z,86.07
2022-12-18T23:03:02.291Z,85.66
2022-12-18T23:05:30.975Z,85.45
2022-12-18T23:07:58.637Z,85.15
2022-12-18T23:10:26.108Z,85.91
2022-12-18T23:12:56.277Z,85.28
2022-12-18T23:15:27.664Z,85.14
2022-12-18T23:17:55.286Z,85.04
2022-12-18T23:20:22.113Z,85.19
2022-12-18T23:22:48.985Z,85.83
2022-12-18T23:25:15.964Z,86.89
2022-12-18T23:27:46.452Z,86.25
2022-12-18T23:30:16.587Z,86.37
2022-12-18T23:32:43.452Z,86.33
2022-12-18T23:35:10.255Z,86.60
2022-12-18T23:37:58.537Z,86.83
2022-12-18T23:40:26.747Z,85.94
2022-12-18T23:42:56.784Z,86.36
2022-12-18T23:45:29.062Z,86.20
2022-12-18T23:47:58.384Z,86.60
2022-12-18T23:50:29.651Z,85.77
2022-12-18T23:52:57.268Z,86.27
2022-12-18T23:55:30.559Z,86.22
2022-12-18T23:57:57.459Z,85.99
